Terminal Aerodrome Forecast
Issued by NWS

Home | Current Version | Previous Version | Text Only | Print | Product List | Glossary On
Versions: 1 2 3 4 5 6 7 8 9 10 11 12 13 14 15 16 17 18 19 20
765
FTUS43 KEAX 231733
TAFSTJ
TAF
KSTJ 231733Z 2318/2418 08012G18KT P6SM VCSH SCT050 OVC100
     FM232000 07012G18KT P6SM BKN035 BKN100
     FM240400 29012KT P6SM VCSH BKN025
     FM240700 34010KT P6SM BKN015=

USA.gov is the U.S. government's official web portal to all federal, state and local government web resources and services.